Test XHTML 1.0 Strict Page for WU-History Testing
Histórico de la Estación METEOCORUÑA
Diario Datos del Marzo 13, 2018 Unidades:  Metrico    Inglés   Ambos
« Prev Dia
Sig Dia »
Diario Semanal Mensual Anual Rango
  Max: Min: Media:
Temp: -17.8 °C -13.8 °C -11.1 °C
Rocío: -17.8 °C -14.9 °C -13.2 °C
Humedad: Humidity % 64 % 78 %
Vel. viento: 0 km/h 2.6 km/h 38.1 km/h
Racha: 0 km/h - -
Viento:- - SSW
Presión: 0 hPa 34097 hPa -
Lluvia: 0 mm    
Historical Graphs
 
 
Busqueda de Marzo 13, 2018
Hora Temp Rocío Presión Viento Vel. viento Racha Humedad Ratio lluvia (/hora) Radiación
-17.8 °C -17.8 °C 0 hPa Calm     Humidity % 0 mm SolarRadiationWatts/m^2 W/m2
00:01 -13.4 °C -14.6 °C 34313.7 hPa South 6 km/h 6 km/h 86 % 0 mm 0.0 W/m2
00:06 -13.4 °C -14.5 °C 34313.7 hPa SE 20.9 km/h 20.9 km/h 87 % 0 mm 0.0 W/m2
00:11 -13.3 °C -14.5 °C 34303.6 hPa SSE 18.2 km/h 18.2 km/h 87 % 0 mm 0.0 W/m2
00:16 -13.4 °C -14.5 °C 34327.3 hPa South 5.1 km/h 12.9 km/h 87 % 0 mm 0 W/m2
00:21 -13.4 °C -14.5 °C 34327.3 hPa SSE 5.1 km/h 10.3 km/h 87 % 0 mm 0 W/m2
00:26 -13.4 °C -14.4 °C 34313.7 hPa SSE 5.1 km/h 12.9 km/h 88 % 0 mm 0 W/m2
00:31 -13.4 °C -14.4 °C 34313.7 hPa SE 5.1 km/h 15.6 km/h 88 % 0 mm 0 W/m2
00:36 -13.4 °C -14.5 °C 34313.7 hPa SSE 5.1 km/h 18.2 km/h 88 % 0 mm 0 W/m2
00:41 -13.4 °C -14.5 °C 34303.6 hPa SE 5.1 km/h 18.2 km/h 88 % 0 mm 0 W/m2
00:46 -13.4 °C -14.5 °C 34303.6 hPa SSE 5.1 km/h 25.9 km/h 88 % 0 mm 0 W/m2
00:51 -13.5 °C -14.4 °C 34303.6 hPa SE 5.1 km/h 28.5 km/h 89 % 0 mm 0 W/m2
00:56 -13.6 °C -14.6 °C 34279.9 hPa South 12.9 km/h 12.9 km/h 89 % 0 mm 0.0 W/m2
01:01 -13.7 °C -14.6 °C 34293.4 hPa SE 10.3 km/h 38.8 km/h 89 % 0 mm 0 W/m2
01:06 -13.7 °C -14.7 °C 34293.4 hPa SE 10.3 km/h 25.9 km/h 89 % 0 mm 0 W/m2
01:11 -13.7 °C -14.7 °C 34279.9 hPa SE 10.3 km/h 25.9 km/h 89 % 0 mm 0 W/m2
01:16 -13.7 °C -14.7 °C 34269.7 hPa SE 10.3 km/h 28.5 km/h 89 % 0 mm 0 W/m2
01:21 -13.7 °C -14.7 °C 34279.9 hPa SE 10.3 km/h 38.8 km/h 89 % 0 mm 0 W/m2
01:26 -13.7 °C -14.6 °C 34269.7 hPa SE 12.9 km/h 28.5 km/h 90 % 0 mm 0 W/m2
01:31 -13.7 °C -14.6 °C 34269.7 hPa SE 12.9 km/h 28.5 km/h 90 % 0 mm 0 W/m2
01:36 -13.7 °C -14.6 °C 34269.7 hPa SE 10.3 km/h 28.5 km/h 90 % 0 mm 0 W/m2
01:41 -13.8 °C -14.7 °C 34246 hPa ESE 26.9 km/h 26.9 km/h 90 % 0 mm 0.0 W/m2
01:46 -13.8 °C -14.7 °C 34246 hPa ESE 36.2 km/h 36.2 km/h 90 % 0 mm 0.0 W/m2
01:51 -13.8 °C -14.7 °C 34269.7 hPa SE 12.9 km/h 23.3 km/h 89 % 0 mm 0 W/m2
01:56 -13.8 °C -14.7 °C 34256.2 hPa ESE 12.9 km/h 36.2 km/h 89 % 0 mm 0 W/m2
02:01 -13.7 °C -14.7 °C 34246 hPa SE 36.2 km/h 36.2 km/h 89 % 0 mm 0.0 W/m2
02:06 -13.7 °C -14.7 °C 34256.2 hPa SE 12.9 km/h 28.5 km/h 89 % 0 mm 0 W/m2
02:11 -13.7 °C -14.8 °C 34256.2 hPa SE 12.9 km/h 38.8 km/h 88 % 0 mm 0 W/m2
02:16 -13.7 °C -14.8 °C 34256.2 hPa SE 15.6 km/h 33.6 km/h 88 % 0 mm 0 W/m2
02:21 -13.7 °C -14.8 °C 34256.2 hPa SE 15.6 km/h 33.6 km/h 88 % 0 mm 0 W/m2
02:26 -13.7 °C -14.8 °C 34246 hPa SE 15.6 km/h 36.2 km/h 88 % 0 mm 0 W/m2
02:31 -13.7 °C -14.8 °C 34235.8 hPa ESE 15.6 km/h 49.2 km/h 88 % 0 mm 0 W/m2
02:36 -13.7 °C -14.8 °C 34235.8 hPa SE 18.2 km/h 31.1 km/h 88 % 0 mm 0 W/m2
02:41 -13.7 °C -14.8 °C 34235.8 hPa SE 18.2 km/h 36.2 km/h 88 % 0 mm 0 W/m2
02:46 -13.7 °C -14.8 °C 34222.3 hPa ESE 15.6 km/h 36.2 km/h 88 % 0 mm 0 W/m2
02:51 -13.8 °C -14.8 °C 34222.3 hPa SE 12.9 km/h 36.2 km/h 88 % 0 mm 0 W/m2
02:56 -13.8 °C -14.8 °C 34222.3 hPa SE 15.6 km/h 36.2 km/h 88 % 0 mm 0 W/m2
03:01 -13.8 °C -14.8 °C 34222.3 hPa ESE 15.6 km/h 28.5 km/h 88 % 0 mm 0 W/m2
03:06 -13.8 °C -14.8 °C 34222.3 hPa ESE 12.9 km/h 38.8 km/h 88 % 0 mm 0 W/m2
03:11 -13.8 °C -14.9 °C 34222.3 hPa ESE 15.6 km/h 31.1 km/h 88 % 0 mm 0 W/m2
03:16 -13.8 °C -14.8 °C 34188.4 hPa SE 25.9 km/h 25.9 km/h 88 % 0 mm 0.0 W/m2
03:21 -13.8 °C -14.8 °C 34212.1 hPa SE 12.9 km/h 25.9 km/h 88 % 0 mm 0 W/m2
03:26 -13.8 °C -14.8 °C 34212.1 hPa SE 15.6 km/h 23.3 km/h 88 % 0 mm 0 W/m2
03:31 -13.7 °C -14.8 °C 34212.1 hPa SE 7.7 km/h 12.9 km/h 88 % 0 mm 0 W/m2
03:36 -13.7 °C -14.8 °C 34212.1 hPa SE 5.1 km/h 15.6 km/h 88 % 0 mm 0 W/m2
03:41 -13.7 °C -14.8 °C 34222.3 hPa SE 5.1 km/h 12.9 km/h 88 % 0 mm 0 W/m2
03:46 -13.7 °C -14.8 °C 34222.3 hPa SE 5.1 km/h 5.1 km/h 88 % 0 mm 0 W/m2
03:51 -13.7 °C -14.8 °C 34212.1 hPa SE 2.6 km/h 12.9 km/h 88 % 0 mm 0 W/m2
03:56 -13.7 °C -14.7 °C 34212.1 hPa ESE 5.1 km/h 20.8 km/h 88 % 0 mm 0 W/m2
04:01 -13.7 °C -14.7 °C 34212.1 hPa SE 7.7 km/h 20.8 km/h 88 % 0 mm 0 W/m2
04:06 -13.6 °C -14.6 °C 34198.6 hPa SE 7.7 km/h 12.9 km/h 88 % 0 mm 0 W/m2
04:11 -13.6 °C -14.6 °C 34198.6 hPa SE 7.7 km/h 15.6 km/h 88 % 0 mm 0 W/m2
04:16 -13.6 °C -14.6 °C 34198.6 hPa ESE 7.7 km/h 18.2 km/h 88 % 0 mm 0 W/m2
04:21 -13.6 °C -14.6 °C 34198.6 hPa SE 7.7 km/h 10.3 km/h 88 % 0 mm 0 W/m2
04:26 -13.5 °C -14.6 °C 34198.6 hPa SE 5.1 km/h 15.6 km/h 88 % 0 mm 0 W/m2
04:31 -13.5 °C -14.6 °C 34188.4 hPa SE 5.1 km/h 18.2 km/h 88 % 0 mm 0 W/m2
04:36 -13.5 °C -14.6 °C 34188.4 hPa SE 5.1 km/h 18.2 km/h 88 % 0 mm 0 W/m2
04:41 -13.4 °C -14.5 °C 34188.4 hPa SE 5.1 km/h 18.2 km/h 88 % 0 mm 0 W/m2
04:46 -13.4 °C -14.5 °C 34188.4 hPa SE 7.7 km/h 23.3 km/h 88 % 0 mm 0 W/m2
04:51 -13.4 °C -14.5 °C 34198.6 hPa SSE 7.7 km/h 15.6 km/h 88 % 0 mm 0 W/m2
04:56 -13.4 °C -14.5 °C 34188.4 hPa SSE 7.7 km/h 18.2 km/h 88 % 0 mm 0 W/m2
05:01 -13.4 °C -14.4 °C 34178.3 hPa SSE 15 km/h 15 km/h 88 % 0 mm 0.0 W/m2
05:06 -13.4 °C -14.5 °C 34178.3 hPa South 15 km/h 15 km/h 87 % 0 mm 0.0 W/m2
05:11 -13.3 °C -14.5 °C 34198.6 hPa SSE 5.1 km/h 12.9 km/h 87 % 0 mm 0 W/m2
05:16 -13.3 °C -14.5 °C 34198.6 hPa SE 5.1 km/h 20.8 km/h 87 % 0 mm 0 W/m2
05:21 -13.3 °C -14.4 °C 34178.3 hPa SSE 10.3 km/h 10.3 km/h 87 % 0 mm 0.0 W/m2
05:26 -13.3 °C -14.4 °C 34178.3 hPa SSE 10.3 km/h 10.3 km/h 87 % 0 mm 0.0 W/m2
05:31 -13.3 °C -14.4 °C 34188.4 hPa SSE 2.6 km/h 7.7 km/h 87 % 0 mm 0 W/m2
05:36 -13.3 °C -14.4 °C 34198.6 hPa SSE 2.6 km/h 10.3 km/h 87 % 0 mm 0 W/m2
05:41 -13.3 °C -14.4 °C 34178.3 hPa SSE 6 km/h 6 km/h 87 % 0 mm 0.0 W/m2
05:46 -13.2 °C -14.4 °C 34178.3 hPa SSE 7.7 km/h 7.7 km/h 87 % 0 mm 0.0 W/m2
05:51 -13.2 °C -14.4 °C 34178.3 hPa SSE 9 km/h 9 km/h 87 % 0 mm 0.0 W/m2
05:56 -13.2 °C -14.3 °C 34178.3 hPa SSE 9 km/h 9 km/h 87 % 0 mm 0.0 W/m2
06:01 -13.2 °C -14.3 °C 34188.4 hPa SSE 9 km/h 9 km/h 87 % 0 mm 0.0 W/m2
06:06 -13.2 °C -14.3 °C 34198.6 hPa SSE 2.6 km/h 12.9 km/h 87 % 0 mm 0 W/m2
06:11 -13.2 °C -14.3 °C 34198.6 hPa SSE 5.1 km/h 12.9 km/h 87 % 0 mm 0 W/m2
06:16 -13.2 °C -14.3 °C 34198.6 hPa SSE 5.1 km/h 7.7 km/h 87 % 0 mm 0 W/m2
06:21 -13.1 °C -14.3 °C 34178.3 hPa SSE 12.9 km/h 12.9 km/h 87 % 0 mm 0.0 W/m2
06:26 -13.1 °C -14.3 °C 34178.3 hPa SSE 10.3 km/h 10.3 km/h 87 % 0 mm 0.0 W/m2
06:31 -13.1 °C -14.3 °C 34198.6 hPa SSE 5.1 km/h 12.9 km/h 87 % 0 mm 0 W/m2
06:37 -13.1 °C -14.2 °C 34188.4 hPa SSE 9 km/h 9 km/h 87 % 0 mm 0.0 W/m2
06:42 -13 °C -14.1 °C 34198.6 hPa SSE 2.6 km/h 10.3 km/h 87 % 0 mm 0 W/m2
06:47 -13 °C -14.1 °C 34198.6 hPa SSE 2.6 km/h 7.7 km/h 87 % 0 mm 0 W/m2
06:52 -13 °C -14.1 °C 34198.6 hPa SSE 2.6 km/h 7.7 km/h 87 % 0 mm 0 W/m2
06:57 -13 °C -14.1 °C 34198.6 hPa SSE 2.6 km/h 12.9 km/h 87 % 0 mm 0 W/m2
07:02 -13 °C -14.1 °C 34198.6 hPa South 5.1 km/h 12.9 km/h 87 % 0 mm 0 W/m2
07:07 -12.9 °C -14.1 °C 34198.6 hPa South 5.1 km/h 18.2 km/h 87 % 0 mm 0 W/m2
07:12 -12.9 °C -14 °C 34212.1 hPa SSW 5.1 km/h 23.3 km/h 87 % 0 mm 0 W/m2
07:17 -12.7 °C -13.7 °C 34212.1 hPa South 10.3 km/h 23.3 km/h 88 % 0 mm 0 W/m2
07:22 -12.6 °C -13.7 °C 34212.1 hPa South 10.3 km/h 18.2 km/h 88 % 0 mm 0 W/m2
07:27 -12.6 °C -13.8 °C 34212.1 hPa South 7.7 km/h 20.8 km/h 87 % 0 mm 0 W/m2
07:32 -12.6 °C -13.8 °C 34212.1 hPa South 10.3 km/h 28.5 km/h 87 % 0 mm 0 W/m2
07:37 -12.6 °C -13.7 °C 34212.1 hPa South 12.9 km/h 23.3 km/h 87 % 0 mm 0 W/m2
07:42 -12.5 °C -13.7 °C 34222.3 hPa South 10.3 km/h 25.9 km/h 87 % 0 mm 0 W/m2
07:47 -12.5 °C -13.7 °C 34222.3 hPa South 12.9 km/h 23.3 km/h 87 % 0 mm 0 W/m2
07:52 -12.5 °C -13.7 °C 34222.3 hPa South 12.9 km/h 20.8 km/h 87 % 0 mm 0 W/m2
07:57 -12.4 °C -13.5 °C 34222.3 hPa South 12.9 km/h 20.8 km/h 87 % 0 mm 5 W/m2
08:02 -12.4 °C -13.5 °C 34222.3 hPa SSW 10.3 km/h 23.3 km/h 87 % 0 mm 7 W/m2
08:07 -12.4 °C -13.6 °C 34198.6 hPa South 11.9 km/h 11.9 km/h 87 % 0 mm 7.0 W/m2
08:12 -12.4 °C -13.6 °C 34222.3 hPa South 5.1 km/h 10.3 km/h 87 % 0 mm 12 W/m2
08:14 -12.4 °C -13.6 °C 34222.3 hPa SSE 5.1 km/h 10.3 km/h 87 % 0 mm 19 W/m2
08:19 -12.4 °C -13.6 °C 34222.3 hPa SSE 2.6 km/h 12.9 km/h 87 % 0 mm 26 W/m2
08:24 -12.4 °C -13.6 °C 34222.3 hPa SSE 5.1 km/h 7.7 km/h 87 % 0 mm 21 W/m2
08:29 -12.4 °C -13.6 °C 34235.8 hPa SSE 2.6 km/h 10.3 km/h 87 % 0 mm 21 W/m2
08:34 -12.4 °C -13.6 °C 34235.8 hPa SSE 2.6 km/h 10.3 km/h 87 % 0 mm 21 W/m2
08:39 -12.4 °C -13.4 °C 34235.8 hPa SSE 5.1 km/h 12.9 km/h 88 % 0 mm 25 W/m2
08:44 -12.4 °C -13.4 °C 34235.8 hPa SSE 2.6 km/h 7.7 km/h 88 % 0 mm 44 W/m2
08:49 -12.3 °C -13.4 °C 34235.8 hPa SSE 2.6 km/h 12.9 km/h 88 % 0 mm 56 W/m2
08:54 -12.3 °C -13.3 °C 34235.8 hPa SSE 5.1 km/h 12.9 km/h 88 % 0 mm 79 W/m2
08:59 -12.2 °C -13.2 °C 34246 hPa South 7.7 km/h 23.3 km/h 88 % 0 mm 125 W/m2
09:04 -12.1 °C -13.1 °C 34246 hPa South 5.1 km/h 12.9 km/h 88 % 0 mm 88 W/m2
09:09 -12 °C -13.1 °C 34246 hPa South 5.1 km/h 18.2 km/h 88 % 0 mm 114 W/m2
09:14 -11.9 °C -13 °C 34246 hPa South 5.1 km/h 18.2 km/h 88 % 0 mm 128 W/m2
09:19 -11.8 °C -12.9 °C 34246 hPa South 5.1 km/h 20.8 km/h 88 % 0 mm 123 W/m2
09:24 -11.7 °C -12.8 °C 34222.3 hPa South 9 km/h 9 km/h 88 % 0 mm 98.0 W/m2
09:29 -11.7 °C -12.8 °C 34235.8 hPa SSW 29.8 km/h 29.8 km/h 87 % 0 mm 125.0 W/m2
09:34 -11.7 °C -12.8 °C 34256.2 hPa South 7.7 km/h 20.8 km/h 87 % 0 mm 127 W/m2
09:39 -11.6 °C -12.8 °C 34256.2 hPa South 10.3 km/h 23.3 km/h 87 % 0 mm 149 W/m2
09:44 -11.6 °C -12.7 °C 34246 hPa SW 10.3 km/h 18.2 km/h 87 % 0 mm 146 W/m2
09:49 -11.5 °C -12.7 °C 34246 hPa South 7.7 km/h 15.6 km/h 87 % 0 mm 114 W/m2
09:54 -11.4 °C -12.6 °C 34256.2 hPa SSW 7.7 km/h 36.2 km/h 87 % 0 mm 290 W/m2
09:59 -11.3 °C -12.4 °C 34246 hPa SSW 15.6 km/h 25.9 km/h 87 % 0 mm 156 W/m2
10:04 -11.1 °C -12.3 °C 34246 hPa South 12.9 km/h 18.2 km/h 87 % 0 mm 200 W/m2
10:09 -11 °C -12.3 °C 34222.3 hPa South 18.2 km/h 18.2 km/h 86 % 0 mm 367.0 W/m2
10:14 -10.8 °C -12.1 °C 34235.8 hPa SSW 20.9 km/h 20.9 km/h 86 % 0 mm 216.0 W/m2
10:19 -10.7 °C -12.1 °C 34235.8 hPa SSW 18.2 km/h 18.2 km/h 85 % 0 mm 408.0 W/m2
10:24 -10.7 °C -12.1 °C 34235.8 hPa South 18.2 km/h 18.2 km/h 84 % 0 mm 376.0 W/m2
10:29 -10.5 °C -12 °C 34235.8 hPa South 25.9 km/h 25.9 km/h 84 % 0 mm 369.0 W/m2
10:34 -10.5 °C -12.1 °C 34235.8 hPa South 23.8 km/h 23.8 km/h 83 % 0 mm 316.0 W/m2
10:39 -10.3 °C -11.8 °C 34235.8 hPa WNW 5.1 km/h 5.1 km/h 84 % 0 mm 392.0 W/m2
10:44 -10.1 °C -11.6 °C 34235.8 hPa WNW 7.7 km/h 7.7 km/h 84 % 0 mm 392.0 W/m2
10:49 -10 °C -11.6 °C 34256.2 hPa WSW 5.1 km/h 28.5 km/h 83 % 0 mm 448 W/m2
10:54 -9.9 °C -11.7 °C 34256.2 hPa WSW 10.3 km/h 41.4 km/h 81 % 0 mm 461 W/m2
10:59 -10.1 °C -11.9 °C 34256.2 hPa WSW 23.3 km/h 41.4 km/h 80 % 0 mm 392 W/m2
11:04 -9.9 °C -11.7 °C 34256.2 hPa WSW 20.8 km/h 20.8 km/h 81 % 0 mm 462 W/m2
11:09 -9.9 °C -11.8 °C 34256.2 hPa WSW 12.9 km/h 23.3 km/h 80 % 0 mm 489 W/m2
11:14 -9.8 °C -11.7 °C 34256.2 hPa West 15.6 km/h 28.5 km/h 80 % 0 mm 529 W/m2
11:19 -9.8 °C -11.8 °C 34256.2 hPa West 15.6 km/h 28.5 km/h 79 % 0 mm 399 W/m2
11:24 -9.8 °C -11.8 °C 34256.2 hPa West 12.9 km/h 25.9 km/h 79 % 0 mm 471 W/m2
11:29 -9.7 °C -11.7 °C 34256.2 hPa WSW 15.6 km/h 57 km/h 79 % 0 mm 566 W/m2
11:34 -9.6 °C -11.8 °C 34256.2 hPa WSW 23.3 km/h 62.1 km/h 77 % 0 mm 471 W/m2
11:39 -9.4 °C -11.8 °C 34269.7 hPa WSW 33.6 km/h 62.1 km/h 76 % 0 mm 506 W/m2
11:44 -9.4 °C -11.8 °C 34256.2 hPa WSW 38.8 km/h 59.5 km/h 75 % 0 mm 559 W/m2
11:49 -9.3 °C -11.8 °C 34269.7 hPa WSW 41.4 km/h 67.3 km/h 75 % 0 mm 533 W/m2
11:54 -9.3 °C -11.7 °C 34269.7 hPa WSW 36.2 km/h 59.5 km/h 75 % 0 mm 499 W/m2
11:59 -9.3 °C -11.7 °C 34269.7 hPa West 31.1 km/h 46.7 km/h 75 % 0 mm 420 W/m2
12:04 -9.3 °C -11.8 °C 34269.7 hPa WSW 33.6 km/h 67.3 km/h 75 % 0 mm 559 W/m2
12:09 -9.4 °C -11.8 °C 34269.7 hPa WSW 41.4 km/h 64.7 km/h 75 % 0 mm 598 W/m2
12:14 -9.2 °C -11.6 °C 34269.7 hPa SW 41.4 km/h 59.5 km/h 76 % 0 mm 232 W/m2
12:19 -9.2 °C -11.6 °C 34269.7 hPa WSW 33.6 km/h 49.2 km/h 75 % 0 mm 374 W/m2
12:24 -9.2 °C -11.8 °C 34246 hPa South 56.6 km/h 56.6 km/h 74 % 0 mm 374.0 W/m2
12:29 -9.2 °C -11.8 °C 34246 hPa SW 59.5 km/h 59.5 km/h 74 % 0 mm 610.0 W/m2
12:34 -9.2 °C -11.8 °C 34256.2 hPa WSW 59.5 km/h 59.5 km/h 73 % 0 mm 631.0 W/m2
12:39 -9.1 °C -11.9 °C 34246 hPa WSW 71.5 km/h 71.5 km/h 72 % 0 mm 638.0 W/m2
12:44 -9.1 °C -11.7 °C 34246 hPa West 62.1 km/h 62.1 km/h 73 % 0 mm 557.0 W/m2
12:49 -9.2 °C -12 °C 34246 hPa West 75.2 km/h 75.2 km/h 72 % 0 mm 223.0 W/m2
12:54 -9.3 °C -12.1 °C 34246 hPa West 68.6 km/h 68.6 km/h 72 % 0 mm 250.0 W/m2
12:59 -9.4 °C -12.1 °C 34246 hPa WSW 65.5 km/h 65.5 km/h 73 % 0 mm 283.0 W/m2
13:04 -9.3 °C -12 °C 34256.2 hPa WSW 59.5 km/h 59.5 km/h 73 % 0 mm 262.0 W/m2
13:09 -9.3 °C -12.1 °C 34256.2 hPa West 62.1 km/h 62.1 km/h 72 % 0 mm 265.0 W/m2
13:14 -9.3 °C -12.1 °C 34246 hPa West 54.4 km/h 54.4 km/h 72 % 0 mm 244.0 W/m2
13:19 -9.2 °C -12 °C 34256.2 hPa SW 65.5 km/h 65.5 km/h 72 % 0 mm 332.0 W/m2
13:24 -9.2 °C -12.1 °C 34246 hPa West 56.6 km/h 56.6 km/h 71 % 0 mm 403.0 W/m2
13:29 -9.1 °C -11.9 °C 34256.2 hPa WSW 65.5 km/h 65.5 km/h 71 % 0 mm 650.0 W/m2
13:34 -8.9 °C -12.1 °C 34256.2 hPa WSW 38.8 km/h 69.8 km/h 69 % 0 mm 754 W/m2
13:39 -9 °C -12 °C 34235.8 hPa WNW 59.5 km/h 59.5 km/h 70 % 0 mm 366.0 W/m2
13:44 -9.1 °C -12.1 °C 34246 hPa West 65.5 km/h 65.5 km/h 70 % 0 mm 343.0 W/m2
13:49 -8.9 °C -11.9 °C 34256.2 hPa WSW 44.1 km/h 51.8 km/h 70 % 0 mm 802 W/m2
13:54 -9 °C -12.3 °C 34256.2 hPa WSW 38.8 km/h 59.5 km/h 68 % 0 mm 376 W/m2
13:59 -8.9 °C -12.1 °C 34235.8 hPa WSW 67.3 km/h 67.3 km/h 69 % 0 mm 541.0 W/m2
14:04 -8.9 °C -12.2 °C 34246 hPa West 75.2 km/h 75.2 km/h 68 % 0 mm 548.0 W/m2
14:09 -9.1 °C -12.4 °C 34269.7 hPa West 44.1 km/h 82.9 km/h 67 % 0 mm 643 W/m2
14:14 -8.9 °C -12.4 °C 34256.2 hPa WSW 49.2 km/h 82.9 km/h 66 % 0 mm 671 W/m2
14:19 -8.9 °C -12.4 °C 34235.8 hPa WSW 74.5 km/h 74.5 km/h 66 % 0 mm 733.0 W/m2
14:24 -8.8 °C -12.3 °C 34256.2 hPa WSW 46.7 km/h 67.3 km/h 66 % 0 mm 657 W/m2
14:29 -8.8 °C -12.4 °C 34256.2 hPa WSW 44.1 km/h 69.8 km/h 65 % 0 mm 536 W/m2
14:34 -9 °C -12.6 °C 34256.2 hPa WSW 44.1 km/h 82.9 km/h 66 % 0 mm 241 W/m2
14:39 -9.1 °C -12.6 °C 34246 hPa WSW 49.2 km/h 57 km/h 66 % 0 mm 339 W/m2
14:44 -8.9 °C -12.3 °C 34246 hPa WSW 38.8 km/h 44.1 km/h 67 % 0 mm 443 W/m2
14:49 -8.9 °C -12.6 °C 34222.3 hPa WSW 67.3 km/h 67.3 km/h 65 % 0 mm 311.0 W/m2
14:54 -9 °C -12.8 °C 34246 hPa West 38.8 km/h 77.7 km/h 64 % 0 mm 404 W/m2
14:59 -9.1 °C -12.8 °C 34246 hPa WSW 44.1 km/h 69.8 km/h 64 % 0 mm 299 W/m2
15:04 -8.8 °C -12.5 °C 34246 hPa WSW 41.4 km/h 64.7 km/h 65 % 0 mm 624 W/m2
15:09 -8.8 °C -12.6 °C 34246 hPa WSW 41.4 km/h 72.6 km/h 64 % 0 mm 390 W/m2
15:14 -8.8 °C -12.5 °C 34222.3 hPa WSW 59.5 km/h 59.5 km/h 65 % 0 mm 371.0 W/m2
15:19 -8.6 °C -12.3 °C 34222.3 hPa SW 68.6 km/h 68.6 km/h 65 % 0 mm 316.0 W/m2
15:24 -8.5 °C -12.3 °C 34222.3 hPa WSW 56.6 km/h 56.6 km/h 64 % 0 mm 863.0 W/m2
15:29 -8.5 °C -12.3 °C 34222.3 hPa WSW 44.7 km/h 44.7 km/h 64 % 0 mm 237.0 W/m2
15:34 -8.4 °C -12.3 °C 34212.1 hPa South 50.7 km/h 50.7 km/h 64 % 0 mm 357.0 W/m2
15:39 -8.7 °C -12.4 °C 34212.1 hPa SW 59.5 km/h 59.5 km/h 64 % 0 mm 271.0 W/m2
15:44 -8.6 °C -12.2 °C 34212.1 hPa South 51.8 km/h 51.8 km/h 66 % 0 mm 768.0 W/m2
15:49 -8.7 °C -12.3 °C 34212.1 hPa SSW 32.8 km/h 32.8 km/h 65 % 0 mm 213.0 W/m2
15:54 -8.7 °C -12.3 °C 34212.1 hPa South 46.7 km/h 46.7 km/h 66 % 0 mm 195.0 W/m2
15:59 -8.9 °C -12.3 °C 34212.1 hPa West 41.7 km/h 41.7 km/h 67 % 0 mm 237.0 W/m2
16:04 -8.9 °C -12.4 °C 34212.1 hPa SSW 47.6 km/h 47.6 km/h 66 % 0 mm 564.0 W/m2
16:09 -8.9 °C -12.3 °C 34212.1 hPa SW 62.1 km/h 62.1 km/h 67 % 0 mm 468.0 W/m2
16:14 -8.9 °C -12.6 °C 34212.1 hPa SW 59.5 km/h 59.5 km/h 65 % 0 mm 439.0 W/m2
16:19 -8.9 °C -12.3 °C 34212.1 hPa SW 54.4 km/h 54.4 km/h 67 % 0 mm 420.0 W/m2
16:24 -8.8 °C -12.3 °C 34212.1 hPa WSW 41.7 km/h 41.7 km/h 66 % 0 mm 608.0 W/m2
16:29 -8.7 °C -12.4 °C 34222.3 hPa SW 28.5 km/h 54.4 km/h 65 % 0 mm 494 W/m2
16:34 -8.9 °C -12.7 °C 34212.1 hPa SW 54.4 km/h 54.4 km/h 64 % 0 mm 492.0 W/m2
16:39 -8.9 °C -12.6 °C 34198.6 hPa WSW 44.1 km/h 44.1 km/h 65 % 0 mm 520.0 W/m2
16:44 -9 °C -12.7 °C 34198.6 hPa South 72.6 km/h 72.6 km/h 64 % 0 mm 487.0 W/m2
16:49 -9.1 °C -12.8 °C 34198.6 hPa SSW 83.4 km/h 83.4 km/h 64 % 0 mm 446.0 W/m2
16:54 -9.1 °C -12.7 °C 34188.4 hPa SW 59.5 km/h 59.5 km/h 65 % 0 mm 383.0 W/m2
16:59 -8.9 °C -12.6 °C 34188.4 hPa SW 49.2 km/h 49.2 km/h 65 % 0 mm 371.0 W/m2
17:04 -8.9 °C -12.7 °C 34188.4 hPa WSW 77.4 km/h 77.4 km/h 64 % 0 mm 227.0 W/m2
17:09 -9 °C -12.8 °C 34188.4 hPa WSW 72.6 km/h 72.6 km/h 64 % 0 mm 279.0 W/m2
17:14 -9 °C -12.6 °C 34188.4 hPa WSW 64.7 km/h 64.7 km/h 66 % 0 mm 376.0 W/m2
17:19 -8.9 °C -12.7 °C 34178.3 hPa South 69.8 km/h 69.8 km/h 64 % 0 mm 237.0 W/m2
17:24 -9.1 °C -12.9 °C 34178.3 hPa SW 72.6 km/h 72.6 km/h 64 % 0 mm 214.0 W/m2
17:29 -9.2 °C -12.8 °C 34164.7 hPa South 64.7 km/h 64.7 km/h 65 % 0 mm 178.0 W/m2
17:34 -9.2 °C -12.7 °C 34164.7 hPa SSW 62.1 km/h 62.1 km/h 66 % 0 mm 265.0 W/m2
17:39 -9.2 °C -12.9 °C 34154.6 hPa SSW 51.8 km/h 51.8 km/h 64 % 0 mm 207.0 W/m2
17:44 -9.1 °C -12.8 °C 34154.6 hPa SW 72.6 km/h 72.6 km/h 65 % 0 mm 199.0 W/m2
17:49 -9.2 °C -13 °C 34154.6 hPa South 80.5 km/h 80.5 km/h 64 % 0 mm 229.0 W/m2
17:54 -9.3 °C -13.1 °C 34164.7 hPa SW 107.2 km/h 107.2 km/h 64 % 0 mm 151.0 W/m2
17:59 -9.4 °C -13 °C 34164.7 hPa SSW 92.4 km/h 92.4 km/h 65 % 0 mm 116.0 W/m2
18:04 -9.4 °C -13.1 °C 34154.6 hPa WSW 98.3 km/h 98.3 km/h 65 % 0 mm 95.0 W/m2
18:09 -9.5 °C -13.1 °C 34178.3 hPa SW 98.3 km/h 98.3 km/h 65 % 0 mm 84.0 W/m2
18:14 -9.5 °C -13 °C 34164.7 hPa WSW 95.3 km/h 95.3 km/h 66 % 0 mm 81.0 W/m2
18:19 -9.5 °C -13 °C 34164.7 hPa SSW 104.3 km/h 104.3 km/h 66 % 0 mm 97.0 W/m2
18:24 -9.5 °C -12.9 °C 34154.6 hPa SSW 74.5 km/h 74.5 km/h 67 % 0 mm 127.0 W/m2
18:29 -9.5 °C -12.9 °C 34154.6 hPa WSW 80.3 km/h 80.3 km/h 67 % 0 mm 104.0 W/m2
18:34 -9.6 °C -12.8 °C 34154.6 hPa WSW 62.6 km/h 62.6 km/h 68 % 0 mm 118.0 W/m2
18:39 -9.6 °C -12.8 °C 34154.6 hPa SW 68.6 km/h 68.6 km/h 68 % 0 mm 91.0 W/m2
18:44 -9.6 °C -12.6 °C 34154.6 hPa SW 59.5 km/h 59.5 km/h 70 % 0 mm 56.0 W/m2
18:49 -9.7 °C -12.8 °C 34154.6 hPa SW 80.3 km/h 80.3 km/h 69 % 0 mm 37.0 W/m2
18:54 -9.7 °C -12.7 °C 34164.7 hPa SSW 57 km/h 57 km/h 70 % 0 mm 33.0 W/m2
18:59 -9.7 °C -12.7 °C 34178.3 hPa West 85.5 km/h 85.5 km/h 70 % 0 mm 37.0 W/m2
19:04 -9.8 °C -12.7 °C 34178.3 hPa WSW 71.5 km/h 71.5 km/h 70 % 0 mm 35.0 W/m2
19:09 -9.8 °C -12.8 °C 34178.3 hPa SSW 69.8 km/h 69.8 km/h 70 % 0 mm 26.0 W/m2
19:14 -9.8 °C -12.8 °C 34178.3 hPa SW 90.6 km/h 90.6 km/h 70 % 0 mm 19.0 W/m2
19:19 -9.9 °C -12.7 °C 34164.7 hPa SW 68.6 km/h 68.6 km/h 71 % 0 mm 16.0 W/m2
19:24 -9.9 °C -12.8 °C 34164.7 hPa SSW 56.6 km/h 56.6 km/h 71 % 0 mm 11.0 W/m2
19:29 -9.9 °C -12.8 °C 34178.3 hPa WSW 80.3 km/h 80.3 km/h 71 % 0 mm 0.0 W/m2
19:34 -10.1 °C -12.8 °C 34178.3 hPa South 74.5 km/h 74.5 km/h 72 % 0 mm 0.0 W/m2
19:39 -10.1 °C -12.8 °C 34178.3 hPa SSW 74.5 km/h 74.5 km/h 72 % 0 mm 0.0 W/m2
19:44 -10.1 °C -12.9 °C 34164.7 hPa SW 77.7 km/h 77.7 km/h 72 % 0 mm 0.0 W/m2
19:49 -10.2 °C -12.9 °C 34164.7 hPa SSW 89.3 km/h 89.3 km/h 72 % 0 mm 0.0 W/m2
19:54 -10.2 °C -12.9 °C 34178.3 hPa WSW 77.4 km/h 77.4 km/h 72 % 0 mm 0.0 W/m2
19:59 -10.2 °C -13 °C 34178.3 hPa SSW 68.6 km/h 68.6 km/h 72 % 0 mm 0.0 W/m2
20:04 -10.2 °C -13 °C 34164.7 hPa South 56.6 km/h 56.6 km/h 72 % 0 mm 0.0 W/m2
20:09 -10.2 °C -12.9 °C 34188.4 hPa WSW 113.9 km/h 113.9 km/h 72 % 0 mm 0.0 W/m2
20:14 -10.2 °C -13 °C 34164.7 hPa SSW 75.2 km/h 75.2 km/h 71 % 0 mm 0.0 W/m2
20:19 -10.2 °C -12.9 °C 34178.3 hPa WSW 59.5 km/h 64.7 km/h 72 % 0 mm 0 W/m2
20:24 -10.2 °C -12.9 °C 34164.7 hPa WSW 62.1 km/h 62.1 km/h 72 % 0 mm 0.0 W/m2
20:29 -10.2 °C -12.9 °C 34164.7 hPa WSW 62.6 km/h 62.6 km/h 72 % 0 mm 0.0 W/m2
20:34 -10.1 °C -12.9 °C 34164.7 hPa SW 80.3 km/h 80.3 km/h 72 % 0 mm 0.0 W/m2
20:39 -10.2 °C -12.9 °C 34154.6 hPa SW 57 km/h 57 km/h 72 % 0 mm 0.0 W/m2
20:44 -10.1 °C -12.8 °C 34178.3 hPa SSW 101.1 km/h 101.1 km/h 73 % 0 mm 0.0 W/m2
20:49 -10.2 °C -12.8 °C 34154.6 hPa SSE 92.4 km/h 92.4 km/h 73 % 0 mm 0.0 W/m2
20:54 -10.2 °C -12.8 °C 34164.7 hPa SW 86.4 km/h 86.4 km/h 73 % 0 mm 0.0 W/m2
20:59 -10.2 °C -12.8 °C 34178.3 hPa WSW 89.3 km/h 89.3 km/h 73 % 0 mm 0.0 W/m2
21:04 -10.2 °C -12.8 °C 34154.6 hPa SSW 68.6 km/h 68.6 km/h 74 % 0 mm 0.0 W/m2
21:09 -10.2 °C -12.7 °C 34178.3 hPa SW 44.1 km/h 93.2 km/h 74 % 0 mm 0 W/m2
21:14 -10.2 °C -12.8 °C 34154.6 hPa SSW 82.9 km/h 82.9 km/h 74 % 0 mm 0.0 W/m2
21:19 -10.2 °C -12.8 °C 34164.7 hPa SSW 80.3 km/h 80.3 km/h 74 % 0 mm 0.0 W/m2
21:24 -10.2 °C -12.7 °C 34178.3 hPa SSW 38.8 km/h 62.1 km/h 74 % 0 mm 0 W/m2
21:29 -10.3 °C -12.7 °C 34154.6 hPa South 59.5 km/h 59.5 km/h 75 % 0 mm 0.0 W/m2
21:34 -10.2 °C -12.8 °C 34154.6 hPa SSW 89.3 km/h 89.3 km/h 74 % 0 mm 0.0 W/m2
21:39 -10.2 °C -12.7 °C 34154.6 hPa WSW 80.3 km/h 80.3 km/h 74 % 0 mm 0.0 W/m2
21:44 -10.2 °C -12.7 °C 34154.6 hPa SSW 107.2 km/h 107.2 km/h 74 % 0 mm 0.0 W/m2
21:49 -10.2 °C -12.7 °C 34144.4 hPa South 49.2 km/h 49.2 km/h 74 % 0 mm 0.0 W/m2
21:54 -10.2 °C -12.8 °C 34144.4 hPa South 89.3 km/h 89.3 km/h 74 % 0 mm 0.0 W/m2
21:59 -10.3 °C -12.7 °C 34164.7 hPa SW 38.8 km/h 98.3 km/h 75 % 0 mm 0 W/m2
22:04 -10.3 °C -12.7 °C 34120.7 hPa SW 83.4 km/h 83.4 km/h 75 % 0 mm 0.0 W/m2
22:09 -10.3 °C -12.7 °C 34120.7 hPa SSW 88 km/h 88 km/h 75 % 0 mm 0.0 W/m2
22:14 -10.3 °C -12.8 °C 34144.4 hPa SW 44.1 km/h 108.8 km/h 74 % 0 mm 0 W/m2
22:19 -10.2 °C -12.9 °C 34144.4 hPa SSW 51.8 km/h 80.3 km/h 73 % 0 mm 0 W/m2
22:24 -10.2 °C -12.9 °C 34120.7 hPa SSW 68.6 km/h 68.6 km/h 72 % 0 mm 0.0 W/m2
22:29 -10.2 °C -12.9 °C 34130.9 hPa SW 82.9 km/h 82.9 km/h 72 % 0 mm 0.0 W/m2
22:34 -10.2 °C -12.9 °C 34144.4 hPa SSW 51.8 km/h 93.2 km/h 72 % 0 mm 0 W/m2
22:39 -10.1 °C -13 °C 34120.7 hPa South 85.5 km/h 85.5 km/h 71 % 0 mm 0.0 W/m2
22:44 -10.1 °C -12.9 °C 34130.9 hPa SW 104.3 km/h 104.3 km/h 71 % 0 mm 0.0 W/m2
22:49 -10.1 °C -13 °C 34130.9 hPa SW 54.4 km/h 80.3 km/h 71 % 0 mm 0 W/m2
22:54 -10.1 °C -12.9 °C 34130.9 hPa SW 49.2 km/h 85.5 km/h 72 % 0 mm 0 W/m2
22:59 -10.2 °C -12.9 °C 34107.2 hPa SW 90.6 km/h 90.6 km/h 72 % 0 mm 0.0 W/m2
23:04 -10.2 °C -12.8 °C 34130.9 hPa SSW 51.8 km/h 75.2 km/h 73 % 0 mm 0 W/m2
23:09 -10.2 °C -12.9 °C 34130.9 hPa SW 46.7 km/h 80.3 km/h 73 % 0 mm 0 W/m2
23:14 -10.2 °C -12.8 °C 34130.9 hPa SW 46.7 km/h 67.3 km/h 73 % 0 mm 0 W/m2
23:19 -10.2 °C -12.9 °C 34130.9 hPa SSW 98.3 km/h 98.3 km/h 73 % 0 mm 0.0 W/m2
23:24 -10.2 °C -12.9 °C 34120.7 hPa SSW 98.3 km/h 98.3 km/h 73 % 0 mm 0.0 W/m2
23:29 -10.2 °C -12.9 °C 34107.2 hPa SE 71.5 km/h 71.5 km/h 73 % 0 mm 0.0 W/m2
23:34 -10.2 °C -12.9 °C 34107.2 hPa South 44.1 km/h 111.4 km/h 72 % 0 mm 0 W/m2
23:39 -10.2 °C -12.9 °C 34107.2 hPa South 113.1 km/h 113.1 km/h 72 % 0 mm 0.0 W/m2
23:44 -10.2 °C -12.9 °C 34097 hPa SW 86.4 km/h 86.4 km/h 72 % 0 mm 0.0 W/m2
23:49 -10.2 °C -12.9 °C 34097 hPa SSW 59.5 km/h 59.5 km/h 73 % 0 mm 0.0 W/m2
23:54 -10.2 °C -12.9 °C 34107.2 hPa South 41.4 km/h 69.8 km/h 73 % 0 mm 0 W/m2
23:59 -10.2 °C -12.9 °C 34097 hPa WSW 68.6 km/h 68.6 km/h 73 % 0 mm 0.0 W/m2
Meteocoruña
Agradecimientos a Weather Underground - 3 mb